Route Details

Aircraft Information
Group: Boeing 737 Only
Types: B738
Route Data
Distance: 440nm
Duration: 1h 19m
Origin METAR: MMTC 160042Z 01005KT 5SM SCT030CB BKN100 BKN250 34/12 A2986 RMK 8/973 BLDU VC 2 QUAD ISOL SC
Dest. METAR: MMMX 160057Z 12010KT 4SM -RA BKN015CB OVC080 16/14 A3027 NOSIG RMK 60205 8/96/ HZY
Freight Data
(for Aug 16, 2022)
Load Factor:
63%
Manifested Cargo: 33,600lbs
Financial History
Total Freight: 182,969lbs
Average Load: 0lbs/flt
Fuel Used: 42,145lbs
Avg. Fuel Used: 0lbs/flt
Fuel Expense: $30,687
Avg. Fuel Expense: $0
Avg. Fuel Cost: $0/lbs
Total Gross Income: $555,894
Pilot Pay: $1,036
Total Expenses: $85,701
Total Revenue: $437,879
Average Revenue: $0

Capitol Logistics 701




MMTC
Francisco Sarabia International Airport
Torreon, MX
MMMX
Benito Juárez International Airport
Mexico City, MX

Activity Log

Date Flight Route Aircraft Duration
07/05/2022 CPX3132 URTIG3 URTIG UJ47 SLP UT131 DARAN DARA2A B738 1h 27m
06/26/2022 CPX3132 TRC4B TRC UJ47 SLP UT131 DARAN DARA2A B752 1h 33m
06/18/2022 CPX3132 URTIG3 URTIG UJ47 SLP UT131 DARAN DARA2A TEST B738 1h 31m
01/25/2022 CPX3132 TRC4B TRC UJ47 SLP UT131 DARAN DARA1A B738 1h 32m